Time;durP1;ratioP1;P1;durP2;ratioP2;P2;SDS_P1;SDS_P2;PMS_P1;PMS_P2;Temp;Humidity;BMP_temperature;BMP_pressure;BME280_temperature;BME280_humidity;BME280_pressure;Samples;Min_cycle;Max_cycle;Signal;HPM_P1;HPM_P2
2021/04/21 00:02:25;;;;;;;80.22;44.85;;;30.50;74.60;;;;;;5105767;28;20026;-52
2021/04/21 00:04:54;;;;;;;82.70;40.25;;;30.50;74.70;;;;;;5105917;28;20081;-52
2021/04/21 00:07:22;;;;;;;78.07;35.30;;;30.40;74.70;;;;;;5105793;28;20016;-59
2021/04/21 00:09:52;;;;;;;58.95;30.13;;;30.40;74.80;;;;;;5105663;28;20110;-51
2021/04/21 00:12:21;;;;;;;75.68;24.85;;;30.40;74.80;;;;;;5105227;28;20062;-57
2021/04/21 00:14:50;;;;;;;54.67;20.50;;;30.40;75.20;;;;;;5105272;28;20305;-54
2021/04/21 00:17:21;;;;;;;66.20;19.48;;;30.30;75.40;;;;;;5105680;28;20034;-59
2021/04/21 00:19:51;;;;;;;38.55;16.80;;;30.30;76.00;;;;;;5105932;28;20024;-53
2021/04/21 00:22:19;;;;;;;50.10;17.90;;;30.00;76.80;;;;;;5105490;28;20055;-57
2021/04/21 00:24:50;;;;;;;40.80;17.20;;;30.10;76.80;;;;;;5105583;28;20023;-58
2021/04/21 00:27:18;;;;;;;53.70;15.80;;;30.10;76.70;;;;;;5105132;28;20016;-50
2021/04/21 00:29:50;;;;;;;31.65;14.75;;;30.10;76.80;;;;;;5087256;28;20124;-52
2021/04/21 00:32:19;;;;;;;37.95;14.95;;;30.10;77.00;;;;;;5105601;28;20023;-51
2021/04/21 00:34:47;;;;;;;34.45;13.20;;;30.10;76.80;;;;;;5105402;28;20401;-53
2021/04/21 00:37:15;;;;;;;52.08;21.52;;;30.10;77.00;;;;;;5105036;28;20133;-51
2021/04/21 00:39:44;;;;;;;42.17;16.75;;;30.10;77.10;;;;;;5105105;28;20020;-55
2021/04/21 00:42:42;;;;;;;44.53;17.15;;;30.10;76.80;;;;;;5105569;28;20016;-54
2021/04/21 00:45:12;;;;;;;39.70;17.15;;;30.10;76.70;;;;;;5092062;28;20063;-52
2021/04/21 00:47:51;;;;;;;180.07;29.42;;;30.10;76.40;;;;;;5105432;28;20117;-54
2021/04/21 00:51:00;;;;;;;49.03;17.50;;;30.00;76.60;;;;;;5105083;28;20034;-52
2021/04/21 00:53:54;;;;;;;48.10;16.10;;;30.00;76.70;;;;;;5025136;28;20054;-54
2021/04/21 00:56:32;;;;;;;35.58;13.93;;;30.00;76.50;;;;;;5105168;28;20028;-58
2021/04/21 00:59:37;;;;;;;41.45;13.43;;;30.00;76.20;;;;;;5105159;28;20211;-56
2021/04/21 01:02:10;;;;;;;33.97;12.60;;;29.90;76.10;;;;;;5104620;28;20032;-55
2021/04/21 01:04:42;;;;;;;35.70;11.88;;;29.90;76.00;;;;;;5070534;28;20295;-52
2021/04/21 01:07:12;;;;;;;29.13;11.02;;;29.90;76.10;;;;;;5086414;28;20117;-57
2021/04/21 01:09:43;;;;;;;;;;;29.90;75.90;;;;;;5105143;28;20016;-55
2021/04/21 01:12:14;;;;;;;31.95;10.20;;;29.90;75.60;;;;;;5104523;28;19911;-50
2021/04/21 01:14:46;;;;;;;29.08;10.00;;;29.80;75.50;;;;;;5103201;28;20027;-53
2021/04/21 01:17:15;;;;;;;24.30;9.85;;;29.80;75.60;;;;;;5104780;28;20020;-53
2021/04/21 01:20:02;;;;;;;29.52;9.95;;;29.80;75.60;;;;;;5086279;28;20046;-57
2021/04/21 01:22:41;;;;;;;21.50;9.32;;;29.80;75.50;;;;;;5104211;28;20036;-57
2021/04/21 01:25:19;;;;;;;35.75;9.73;;;29.80;75.50;;;;;;5104252;28;20087;-55
2021/04/21 01:28:10;;;;;;;25.38;9.32;;;29.80;75.30;;;;;;5104657;28;20193;-54
2021/04/21 01:30:42;;;;;;;27.20;9.93;;;29.80;76.00;;;;;;5104635;28;20053;-56
2021/04/21 01:33:15;;;;;;;26.15;9.68;;;29.80;75.40;;;;;;5104597;28;20027;-50
2021/04/21 01:35:54;;;;;;;29.23;9.48;;;29.80;75.40;;;;;;5086413;28;20027;-59
2021/04/21 01:38:23;;;;;;;20.75;9.35;;;29.80;75.50;;;;;;5104089;28;20031;-50
2021/04/21 01:40:53;;;;;;;21.75;9.50;;;29.70;75.40;;;;;;5104567;28;20020;-52
2021/04/21 01:43:44;;;;;;;30.15;9.93;;;29.70;75.80;;;;;;5104366;28;20056;-53
2021/04/21 01:46:13;;;;;;;28.33;12.45;;;29.70;75.40;;;;;;5103490;28;20094;-50
2021/04/21 01:48:44;;;;;;;57.88;33.45;;;29.60;75.40;;;;;;5103437;28;20020;-50
2021/04/21 01:51:25;;;;;;;40.83;22.75;;;29.60;75.40;;;;;;5104059;28;20023;-53
2021/04/21 01:53:56;;;;;;;41.38;24.15;;;29.60;75.50;;;;;;5103741;28;20032;-47
2021/04/21 01:56:31;;;;;;;49.13;31.05;;;29.60;75.50;;;;;;5104263;28;20083;-51
2021/04/21 01:59:27;;;;;;;47.92;26.00;;;29.50;75.40;;;;;;5104094;28;20061;-50
2021/04/21 02:02:07;;;;;;;37.50;20.40;;;29.50;75.80;;;;;;5104228;28;20310;-51
2021/04/21 02:04:58;;;;;;;32.88;17.58;;;29.40;75.90;;;;;;5104299;28;20031;-48
2021/04/21 02:07:53;;;;;;;27.60;14.05;;;29.50;76.00;;;;;;5104084;28;20026;-53
2021/04/21 02:11:01;;;;;;;31.42;14.52;;;29.40;76.10;;;;;;5104042;28;20012;-52
2021/04/21 02:14:05;;;;;;;44.13;12.57;;;29.40;76.10;;;;;;5103688;28;20012;-53
2021/04/21 02:17:02;;;;;;;51.40;11.43;;;29.40;76.20;;;;;;5103822;28;20024;-53
2021/04/21 02:20:01;;;;;;;26.10;9.65;;;29.30;75.70;;;;;;5103887;28;20024;-48
2021/04/21 02:22:42;;;;;;;21.48;9.38;;;29.30;76.00;;;;;;5103909;28;20044;-52
2021/04/21 02:25:32;;;;;;;23.83;8.98;;;29.20;76.10;;;;;;5103598;28;20031;-57
2021/04/21 02:28:22;;;;;;;33.47;11.15;;;29.20;75.90;;;;;;5103652;28;20024;-50
2021/04/21 02:31:13;;;;;;;29.50;8.60;;;29.20;75.80;;;;;;5086077;28;20016;-51
2021/04/21 02:34:17;;;;;;;26.02;8.82;;;29.20;76.10;;;;;;5103723;28;20016;-55
2021/04/21 02:37:34;;;;;;;38.63;22.33;;;29.10;76.20;;;;;;5103918;28;20032;-53
2021/04/21 02:40:07;;;;;;;20.65;11.13;;;29.10;76.50;;;;;;5061633;28;20101;-51
2021/04/21 02:42:53;;;;;;;19.75;9.35;;;29.00;76.50;;;;;;5103895;28;20137;-49
2021/04/21 02:45:38;;;;;;;21.40;9.77;;;29.00;76.20;;;;;;5103609;28;20291;-51
2021/04/21 02:48:28;;;;;;;30.30;9.23;;;29.00;76.70;;;;;;5103713;28;20012;-52
2021/04/21 02:51:16;;;;;;;26.25;9.10;;;28.90;76.80;;;;;;5103821;28;20024;-51
2021/04/21 02:53:59;;;;;;;32.80;10.05;;;28.90;77.00;;;;;;5103687;28;20040;-49
2021/04/21 02:56:58;;;;;;;21.52;9.38;;;28.90;77.00;;;;;;5103965;28;20300;-51
2021/04/21 02:59:51;;;;;;;25.00;9.15;;;28.80;76.80;;;;;;5089609;28;20028;-50
2021/04/21 03:02:36;;;;;;;22.10;9.73;;;28.80;76.70;;;;;;5107354;28;20038;-57
2021/04/21 03:05:20;;;;;;;18.40;9.13;;;28.80;76.20;;;;;;5106756;28;20028;-48
2021/04/21 03:08:14;;;;;;;20.77;8.70;;;28.80;76.00;;;;;;5107417;28;20248;-44
2021/04/21 03:10:57;;;;;;;23.20;8.65;;;28.80;76.10;;;;;;5107392;28;20024;-50
2021/04/21 03:13:31;;;;;;;19.98;9.48;;;28.80;76.30;;;;;;5107004;28;20015;-45
2021/04/21 03:16:19;;;;;;;19.50;8.98;;;28.80;76.30;;;;;;5107054;28;20085;-49
2021/04/21 03:18:47;;;;;;;20.17;9.02;;;28.90;76.50;;;;;;5106774;28;20016;-48
2021/04/21 03:21:23;;;;;;;20.08;8.98;;;28.80;76.50;;;;;;5122448;28;20348;-48
2021/04/21 03:24:14;;;;;;;19.25;9.23;;;28.90;76.50;;;;;;5106725;28;20241;-52
2021/04/21 03:26:44;;;;;;;17.13;8.48;;;28.90;76.60;;;;;;5107021;28;20264;-49
2021/04/21 03:29:17;;;;;;;21.42;9.98;;;28.80;76.50;;;;;;5088464;28;20047;-45
2021/04/21 03:31:48;;;;;;;20.90;8.80;;;28.80;76.70;;;;;;5107056;28;20027;-45
2021/04/21 03:34:17;;;;;;;21.23;9.05;;;28.80;76.90;;;;;;5106597;28;20024;-44
2021/04/21 03:36:44;;;;;;;20.75;8.88;;;28.80;77.00;;;;;;5105656;28;20304;-48
2021/04/21 03:39:12;;;;;;;18.00;8.75;;;28.80;77.10;;;;;;5095982;28;20017;-46
2021/04/21 03:41:39;;;;;;;20.00;9.23;;;28.70;77.10;;;;;;5094957;28;20020;-44
2021/04/21 03:44:06;;;;;;;20.73;9.63;;;28.80;77.10;;;;;;5095093;28;20043;-46
2021/04/21 03:46:34;;;;;;;25.92;9.65;;;28.70;76.70;;;;;;5106773;28;20032;-48
2021/04/21 03:49:02;;;;;;;17.20;8.65;;;28.80;76.80;;;;;;5106805;28;20079;-46
2021/04/21 03:51:29;;;;;;;20.65;9.23;;;28.80;76.90;;;;;;5107025;28;20197;-49
2021/04/21 03:53:56;;;;;;;20.13;9.48;;;28.80;76.70;;;;;;5105933;28;20031;-51
2021/04/21 03:56:25;;;;;;;18.00;9.23;;;28.80;76.70;;;;;;5106922;28;20297;-50
2021/04/21 03:58:54;;;;;;;27.80;9.82;;;28.80;76.70;;;;;;5088256;28;20046;-46
2021/04/21 04:01:25;;;;;;;20.13;10.13;;;28.80;76.70;;;;;;5106735;28;20304;-48
2021/04/21 04:04:07;;;;;;;19.60;8.95;;;28.70;76.70;;;;;;5106666;28;20020;-51
2021/04/21 04:06:46;;;;;;;23.27;9.32;;;28.70;76.70;;;;;;5106549;28;20160;-44
2021/04/21 04:09:14;;;;;;;22.33;8.43;;;28.70;76.90;;;;;;5106212;28;20031;-44
2021/04/21 04:11:50;;;;;;;16.73;8.85;;;28.70;77.00;;;;;;5105791;28;20221;-45
2021/04/21 04:14:17;;;;;;;19.98;9.00;;;28.70;76.90;;;;;;5106315;28;20020;-51
2021/04/21 04:16:45;;;;;;;20.90;9.77;;;28.70;76.90;;;;;;5106670;28;20070;-45
2021/04/21 04:19:12;;;;;;;23.77;9.45;;;28.70;77.00;;;;;;5088208;28;20015;-49
2021/04/21 04:21:42;;;;;;;23.45;9.40;;;28.70;77.00;;;;;;5106277;28;20054;-47
2021/04/21 04:24:14;;;;;;;18.10;8.70;;;28.70;77.10;;;;;;5105979;28;20024;-46
2021/04/21 04:26:43;;;;;;;20.20;8.88;;;28.70;77.30;;;;;;5105864;28;20039;-45
2021/04/21 04:29:10;;;;;;;19.83;9.55;;;28.70;77.40;;;;;;5105941;28;20020;-47
2021/04/21 04:31:39;;;;;;;20.05;8.95;;;28.70;77.30;;;;;;5106292;28;20115;-45
2021/04/21 04:34:07;;;;;;;18.95;9.48;;;28.70;77.30;;;;;;5105952;28;20061;-48
2021/04/21 04:36:39;;;;;;;14.75;8.88;;;28.70;77.30;;;;;;5106249;28;20095;-44
2021/04/21 04:39:08;;;;;;;17.92;9.57;;;28.70;77.50;;;;;;5105985;28;20027;-47
2021/04/21 04:41:37;;;;;;;20.17;9.73;;;28.70;77.60;;;;;;5106297;28;20036;-49
2021/04/21 04:44:06;;;;;;;20.48;10.18;;;28.70;77.50;;;;;;5105602;28;20215;-47
2021/04/21 04:46:37;;;;;;;22.40;10.13;;;28.70;77.60;;;;;;5106045;28;20039;-51
2021/04/21 04:49:17;;;;;;;20.60;12.97;;;28.60;77.50;;;;;;5105771;28;20051;-50
2021/04/21 04:51:46;;;;;;;21.92;12.73;;;28.70;77.70;;;;;;5106014;28;20473;-47
2021/04/21 04:54:15;;;;;;;20.90;12.63;;;28.60;77.70;;;;;;5105625;28;20019;-45
2021/04/21 04:56:46;;;;;;;20.85;12.15;;;28.70;78.10;;;;;;5105821;28;20028;-47
2021/04/21 04:59:14;;;;;;;21.33;12.20;;;28.60;78.00;;;;;;5105508;28;20216;-52
2021/04/21 05:02:00;;;;;;;22.73;11.68;;;28.60;78.40;;;;;;5105837;28;20031;-47
2021/04/21 05:04:36;;;;;;;23.85;11.48;;;28.60;78.70;;;;;;5105404;28;20251;-47
2021/04/21 05:07:08;;;;;;;24.70;11.38;;;28.60;79.00;;;;;;5105759;28;20024;-48
2021/04/21 05:09:42;;;;;;;19.35;10.55;;;28.50;79.00;;;;;;5105360;28;20016;-48
2021/04/21 05:12:13;;;;;;;16.98;9.95;;;28.50;79.00;;;;;;5105521;28;20036;-49
2021/04/21 05:14:45;;;;;;;24.75;10.98;;;28.50;79.10;;;;;;5105147;28;20012;-45
2021/04/21 05:17:49;;;;;;;22.48;10.70;;;28.50;79.10;;;;;;5105144;28;20035;-47
2021/04/21 05:20:42;;;;;;;16.77;10.18;;;28.50;79.00;;;;;;5104986;28;20026;-45
2021/04/21 05:23:41;;;;;;;18.58;10.13;;;28.50;79.30;;;;;;5104804;28;20047;-47
2021/04/21 05:26:46;;;;;;;23.92;10.82;;;28.50;79.40;;;;;;5053371;28;20040;-45
2021/04/21 05:29:49;;;;;;;16.85;9.40;;;28.50;79.30;;;;;;5104840;28;20020;-45
2021/04/21 05:32:59;;;;;;;19.58;9.60;;;28.50;79.20;;;;;;5105045;28;20083;-47
2021/04/21 05:35:55;;;;;;;16.38;9.13;;;28.50;79.30;;;;;;5105034;28;20019;-47
2021/04/21 05:38:46;;;;;;;19.15;10.80;;;28.50;79.20;;;;;;5104842;28;20020;-50
2021/04/21 05:41:51;;;;;;;18.13;9.88;;;28.50;79.50;;;;;;5105110;28;20042;-52
2021/04/21 05:44:56;;;;;;;19.75;9.93;;;28.50;79.40;;;;;;5104723;28;20032;-52
2021/04/21 05:48:03;;;;;;;23.77;10.05;;;28.50;79.60;;;;;;5104715;28;20059;-46
2021/04/21 05:50:48;;;;;;;23.65;10.02;;;28.50;79.70;;;;;;5003263;28;20220;-52
2021/04/21 05:53:38;;;;;;;21.15;9.77;;;28.40;79.80;;;;;;5003373;28;20106;-48
2021/04/21 05:56:41;;;;;;;17.80;9.82;;;28.40;79.70;;;;;;5077395;28;20319;-46
2021/04/21 05:59:38;;;;;;;18.40;9.75;;;28.40;79.80;;;;;;5104612;28;20051;-48
2021/04/21 06:02:05;;;;;;;20.98;10.75;;;28.40;79.90;;;;;;5104531;28;20269;-45
2021/04/21 06:04:32;;;;;;;22.00;10.70;;;28.40;79.80;;;;;;5104636;28;20028;-45
2021/04/21 06:07:15;;;;;;;22.63;10.65;;;28.40;79.80;;;;;;5104875;28;20032;-47
2021/04/21 06:09:41;;;;;;;;;;;28.40;80.00;;;;;;5104742;28;20077;-56
2021/04/21 06:12:11;;;;;;;19.08;9.93;;;28.40;80.10;;;;;;5104434;28;20247;-48
2021/04/21 06:14:42;;;;;;;20.92;10.05;;;28.40;80.10;;;;;;5104325;28;20031;-46
2021/04/21 06:17:09;;;;;;;20.63;10.90;;;28.30;80.20;;;;;;5104482;28;20031;-45
2021/04/21 06:19:36;;;;;;;18.58;10.18;;;28.30;80.40;;;;;;5104440;28;20020;-45
2021/04/21 06:22:03;;;;;;;21.98;10.65;;;28.30;80.40;;;;;;5104286;28;20226;-51
2021/04/21 06:24:30;;;;;;;22.83;10.50;;;28.30;80.30;;;;;;5104435;28;20017;-49
2021/04/21 06:27:08;;;;;;;19.25;10.25;;;28.30;80.30;;;;;;5104715;28;20269;-54
2021/04/21 06:29:36;;;;;;;21.40;10.43;;;28.30;80.20;;;;;;5104438;28;20023;-46
2021/04/21 06:32:05;;;;;;;17.80;9.95;;;28.20;80.00;;;;;;5104782;28;20020;-46
2021/04/21 06:34:33;;;;;;;21.58;10.63;;;28.30;80.10;;;;;;5105657;28;20144;-49
2021/04/21 06:37:00;;;;;;;20.55;10.55;;;28.30;79.90;;;;;;5108854;28;20032;-51
2021/04/21 06:39:30;;;;;;;19.98;9.77;;;28.30;79.70;;;;;;5108283;28;20057;-46
2021/04/21 06:41:59;;;;;;;18.67;10.38;;;28.30;79.60;;;;;;5108582;28;20055;-45
2021/04/21 06:44:32;;;;;;;21.33;9.65;;;28.30;79.70;;;;;;5107956;28;20062;-44
2021/04/21 06:46:59;;;;;;;16.08;9.50;;;28.30;79.80;;;;;;5108485;28;20220;-47
2021/04/21 06:49:25;;;;;;;23.30;10.63;;;28.30;80.10;;;;;;5107830;28;20020;-49
2021/04/21 06:51:52;;;;;;;18.77;9.93;;;28.30;80.00;;;;;;5108499;28;20020;-50
2021/04/21 06:54:22;;;;;;;20.00;10.18;;;28.30;80.00;;;;;;5107992;28;20016;-45
2021/04/21 06:56:49;;;;;;;21.63;10.50;;;28.30;79.80;;;;;;5107719;28;20065;-47
2021/04/21 06:59:20;;;;;;;21.00;10.85;;;28.30;79.60;;;;;;5107839;28;20353;-45
2021/04/21 07:01:50;;;;;;;19.92;10.60;;;28.30;79.50;;;;;;5107548;28;20077;-47
2021/04/21 07:04:19;;;;;;;16.88;10.40;;;28.20;79.50;;;;;;5107686;28;20028;-45
2021/04/21 07:06:48;;;;;;;21.55;10.68;;;28.20;79.80;;;;;;5108108;28;20061;-45
2021/04/21 07:09:22;;;;;;;18.13;10.15;;;28.20;79.70;;;;;;5107510;28;20172;-44
2021/04/21 07:12:00;;;;;;;16.17;9.90;;;28.20;79.40;;;;;;5107978;28;20220;-50
2021/04/21 07:14:29;;;;;;;18.50;10.18;;;28.20;79.40;;;;;;5107411;28;20071;-45
2021/04/21 07:16:58;;;;;;;21.55;10.32;;;28.20;79.40;;;;;;5108004;28;20267;-50
2021/04/21 07:19:27;;;;;;;18.05;9.48;;;28.20;79.30;;;;;;5107375;28;20020;-45
2021/04/21 07:21:54;;;;;;;16.17;10.23;;;28.20;79.50;;;;;;5107211;28;20092;-48
2021/04/21 07:24:34;;;;;;;16.88;9.88;;;28.20;79.50;;;;;;5107288;28;20020;-45
2021/04/21 07:27:09;;;;;;;18.73;10.20;;;28.10;79.20;;;;;;5107640;28;20098;-47
2021/04/21 07:29:36;;;;;;;18.23;10.07;;;28.10;79.20;;;;;;5107185;28;20020;-47
2021/04/21 07:32:18;;;;;;;18.40;10.60;;;28.10;79.10;;;;;;5107803;28;20036;-44
2021/04/21 07:34:44;;;;;;;18.10;10.48;;;28.10;79.00;;;;;;5107366;28;20028;-53
2021/04/21 07:37:11;;;;;;;19.42;10.95;;;28.10;79.00;;;;;;5107219;28;20328;-51
2021/04/21 07:39:40;;;;;;;19.60;9.90;;;28.10;79.10;;;;;;5107134;28;20128;-46
2021/04/21 07:42:17;;;;;;;25.73;10.35;;;28.10;79.60;;;;;;5107086;28;20274;-48
2021/04/21 07:44:51;;;;;;;20.42;10.45;;;28.00;79.10;;;;;;5107084;28;20062;-52
2021/04/21 07:47:19;;;;;;;20.80;10.45;;;28.10;79.20;;;;;;5105719;28;20065;-52
2021/04/21 07:49:54;;;;;;;22.52;10.65;;;28.00;79.10;;;;;;5106936;28;20012;-48
2021/04/21 07:52:27;;;;;;;18.85;10.52;;;28.00;79.40;;;;;;5106661;28;20209;-45
2021/04/21 07:55:07;;;;;;;19.27;10.70;;;28.00;79.60;;;;;;5106684;28;20031;-50
2021/04/21 07:57:34;;;;;;;19.67;10.50;;;27.90;79.60;;;;;;5106578;28;20024;-45
2021/04/21 08:00:03;;;;;;;19.40;10.45;;;27.90;79.70;;;;;;5106712;28;20016;-45
2021/04/21 08:02:34;;;;;;;22.23;10.60;;;27.90;79.60;;;;;;5106643;28;20083;-49
2021/04/21 08:05:20;;;;;;;21.23;10.73;;;27.90;79.50;;;;;;5106337;28;20093;-49
2021/04/21 08:08:00;;;;;;;24.50;10.65;;;27.90;79.40;;;;;;5106663;28;20079;-47
2021/04/21 08:10:36;;;;;;;17.17;10.40;;;27.90;79.40;;;;;;5106410;28;20016;-46
2021/04/21 08:13:03;;;;;;;20.17;10.20;;;27.80;79.30;;;;;;5106374;28;20024;-45
2021/04/21 08:15:36;;;;;;;18.63;10.30;;;27.80;79.40;;;;;;5106288;28;20170;-52
2021/04/21 08:18:11;;;;;;;19.67;10.52;;;27.90;79.50;;;;;;5106341;28;20054;-45
2021/04/21 08:20:42;;;;;;;23.50;10.63;;;27.90;79.30;;;;;;5106268;28;20124;-53
2021/04/21 08:23:10;;;;;;;19.45;10.55;;;27.90;79.50;;;;;;5106274;28;20027;-49
2021/04/21 08:25:39;;;;;;;23.17;10.57;;;27.90;79.60;;;;;;5106025;28;20019;-46
2021/04/21 08:28:05;;;;;;;14.45;10.02;;;27.90;79.70;;;;;;5105911;28;20061;-46
2021/04/21 08:30:32;;;;;;;18.38;10.40;;;27.90;79.60;;;;;;5088075;28;20194;-51
2021/04/21 08:32:59;;;;;;;21.15;10.13;;;27.90;79.70;;;;;;5105997;28;20020;-52
2021/04/21 08:35:25;;;;;;;18.42;10.07;;;27.80;79.60;;;;;;5106080;28;20032;-50
2021/04/21 08:37:52;;;;;;;19.20;10.25;;;27.80;79.50;;;;;;5105969;28;20028;-44
2021/04/21 08:40:22;;;;;;;21.58;10.15;;;27.80;79.60;;;;;;5106013;28;20085;-45
2021/04/21 08:42:55;;;;;;;17.13;10.07;;;27.80;79.60;;;;;;5105668;28;20024;-49
2021/04/21 08:45:22;;;;;;;20.05;10.50;;;27.80;79.80;;;;;;5105934;28;20031;-49
2021/04/21 08:47:50;;;;;;;20.10;10.48;;;27.80;79.70;;;;;;5105807;28;20145;-44
2021/04/21 08:50:17;;;;;;;15.20;10.20;;;27.70;79.90;;;;;;5105617;28;20028;-45
2021/04/21 08:52:51;;;;;;;16.33;10.48;;;27.70;79.90;;;;;;5087636;28;20044;-46
2021/04/21 08:55:19;;;;;;;18.77;9.82;;;27.70;80.20;;;;;;5105663;28;20031;-45
2021/04/21 08:57:46;;;;;;;18.15;10.45;;;27.70;80.30;;;;;;5104929;28;20259;-47
2021/04/21 09:00:18;;;;;;;16.42;10.40;;;27.70;80.30;;;;;;5105688;28;20087;-47
2021/04/21 09:02:46;;;;;;;21.70;11.38;;;27.70;80.30;;;;;;5105424;28;20239;-50
2021/04/21 09:05:14;;;;;;;19.58;10.30;;;27.60;80.30;;;;;;5105248;28;20107;-46
2021/04/21 09:07:41;;;;;;;18.13;10.73;;;27.70;80.50;;;;;;5105348;28;20019;-45
2021/04/21 09:10:15;;;;;;;19.05;10.05;;;27.70;80.50;;;;;;5105359;28;20031;-46
2021/04/21 09:12:42;;;;;;;18.42;10.70;;;27.60;80.50;;;;;;5105248;28;20084;-48
2021/04/21 09:15:11;;;;;;;18.77;10.10;;;27.60;80.60;;;;;;5105285;28;20024;-48
2021/04/21 09:17:50;;;;;;;20.77;11.38;;;27.60;80.70;;;;;;5105131;28;20331;-48
2021/04/21 09:20:20;;;;;;;21.48;11.93;;;27.60;81.10;;;;;;5105101;28;20027;-47
2021/04/21 09:23:15;;;;;;;20.40;11.23;;;27.50;81.20;;;;;;5086902;28;20039;-53
2021/04/21 09:25:48;;;;;;;20.52;10.82;;;27.50;81.20;;;;;;5103135;28;20040;-44
2021/04/21 09:28:15;;;;;;;;;;;27.50;81.30;;;;;;5105235;28;20031;-47
2021/04/21 09:30:45;;;;;;;21.20;12.57;;;27.50;81.30;;;;;;5104927;28;19914;-44
2021/04/21 09:33:11;;;;;;;21.30;11.30;;;27.50;81.40;;;;;;5104679;28;20020;-48
2021/04/21 09:35:43;;;;;;;21.35;11.80;;;27.40;81.50;;;;;;5104836;28;20031;-43
2021/04/21 09:38:21;;;;;;;20.37;12.13;;;27.40;81.50;;;;;;5104873;28;20031;-49
2021/04/21 09:40:49;;;;;;;22.77;11.52;;;27.40;81.60;;;;;;5104987;28;20024;-52
2021/04/21 09:43:22;;;;;;;18.92;11.57;;;27.40;81.70;;;;;;5104830;28;20024;-46
2021/04/21 09:45:54;;;;;;;19.98;11.38;;;27.40;81.90;;;;;;5104924;28;20032;-44
2021/04/21 09:48:37;;;;;;;;;;;27.30;81.10;;;;;;5105077;28;20012;-44
2021/04/21 09:51:06;;;;;;;16.40;10.27;;;27.40;80.80;;;;;;5104950;28;19908;-45
2021/04/21 09:53:37;;;;;;;13.90;9.70;;;27.40;80.30;;;;;;5104565;28;20016;-43
2021/04/21 09:56:25;;;;;;;17.50;10.18;;;27.40;79.70;;;;;;5104851;28;20024;-44
2021/04/21 09:59:02;;;;;;;17.83;10.15;;;27.40;79.30;;;;;;5104398;28;20047;-45
2021/04/21 10:01:29;;;;;;;19.85;9.95;;;27.40;79.00;;;;;;5104858;28;20032;-47
2021/04/21 10:04:06;;;;;;;23.13;9.13;;;27.30;78.70;;;;;;5104693;28;20328;-45
2021/04/21 10:06:33;;;;;;;19.92;10.20;;;27.30;78.60;;;;;;5104671;28;20035;-44
2021/04/21 10:08:59;;;;;;;17.23;9.68;;;27.30;78.50;;;;;;5104725;28;20019;-44
2021/04/21 10:11:26;;;;;;;17.25;10.13;;;27.30;78.60;;;;;;5108239;28;20194;-44
2021/04/21 10:13:55;;;;;;;22.55;9.73;;;27.30;78.60;;;;;;5108115;28;20012;-47
2021/04/21 10:16:22;;;;;;;20.77;9.45;;;27.30;78.70;;;;;;5108424;28;20073;-45
2021/04/21 10:18:50;;;;;;;19.13;9.88;;;27.30;78.70;;;;;;5107877;28;20024;-54
2021/04/21 10:21:19;;;;;;;20.17;9.88;;;27.30;78.50;;;;;;5108051;28;20066;-53
2021/04/21 10:23:47;;;;;;;27.25;9.98;;;27.30;78.40;;;;;;5107824;28;20087;-49
2021/04/21 10:26:16;;;;;;;23.13;10.18;;;27.20;78.10;;;;;;5108040;28;20028;-49
2021/04/21 10:28:44;;;;;;;24.60;10.35;;;27.20;78.10;;;;;;5106918;28;20012;-46
2021/04/21 10:31:16;;;;;;;22.67;9.90;;;27.20;78.30;;;;;;5107407;28;20028;-46
2021/04/21 10:33:43;;;;;;;23.15;10.18;;;27.20;78.30;;;;;;5107799;28;20039;-46
2021/04/21 10:36:11;;;;;;;22.30;11.13;;;27.20;78.20;;;;;;5108022;28;20031;-47
2021/04/21 10:38:42;;;;;;;21.58;10.77;;;27.20;78.30;;;;;;5107822;28;20016;-52
2021/04/21 10:41:26;;;;;;;22.13;10.38;;;27.30;78.50;;;;;;5107875;28;20023;-52
2021/04/21 10:44:16;;;;;;;23.25;10.18;;;27.30;78.60;;;;;;5107372;28;20083;-57
2021/04/21 10:46:58;;;;;;;25.80;10.40;;;27.30;78.60;;;;;;5107922;28;20043;-48
2021/04/21 10:49:36;;;;;;;;;;;27.30;78.50;;;;;;5107843;28;20047;-49
2021/04/21 10:52:17;;;;;;;21.67;10.70;;;27.30;78.50;;;;;;5089524;28;20021;-55
2021/04/21 10:54:46;;;;;;;22.95;10.60;;;27.30;78.60;;;;;;5107292;28;20077;-55
2021/04/21 10:57:35;;;;;;;22.52;11.63;;;27.30;78.60;;;;;;5107368;28;20016;-49
2021/04/21 11:00:05;;;;;;;21.25;10.07;;;27.30;78.50;;;;;;5107282;28;20031;-46
2021/04/21 11:02:44;;;;;;;21.65;10.20;;;27.30;78.40;;;;;;5107215;28;20016;-48
2021/04/21 11:05:19;;;;;;;16.38;9.88;;;27.30;78.40;;;;;;5106980;28;20024;-45
2021/04/21 11:07:58;;;;;;;24.48;10.63;;;27.40;78.50;;;;;;5106964;28;20020;-51
2021/04/21 11:10:51;;;;;;;25.13;11.63;;;27.40;78.40;;;;;;5106882;28;20089;-44
2021/04/21 11:13:38;;;;;;;31.13;12.05;;;27.40;78.40;;;;;;5088865;28;20012;-48
2021/04/21 11:16:12;;;;;;;26.60;11.95;;;27.40;78.30;;;;;;5107074;28;20141;-47
2021/04/21 11:18:39;;;;;;;20.90;11.25;;;27.40;78.30;;;;;;5106756;28;20034;-51
2021/04/21 11:21:11;;;;;;;27.05;11.65;;;27.60;78.00;;;;;;5106591;28;20079;-50
2021/04/21 11:24:03;;;;;;;26.38;11.93;;;27.80;77.50;;;;;;5106886;28;20031;-47
2021/04/21 11:26:30;;;;;;;36.60;13.98;;;27.90;76.80;;;;;;5088755;28;20280;-55
2021/04/21 11:29:18;;;;;;;32.78;12.98;;;27.80;77.10;;;;;;5106687;28;20008;-49
2021/04/21 11:31:46;;;;;;;31.65;12.80;;;27.70;77.10;;;;;;5107116;28;20027;-49
2021/04/21 11:34:16;;;;;;;33.58;15.32;;;27.60;77.00;;;;;;5106650;28;20053;-48
2021/04/21 11:37:02;;;;;;;25.30;12.23;;;27.60;77.10;;;;;;5106693;28;20062;-47
2021/04/21 11:39:43;;;;;;;33.45;13.15;;;27.60;77.10;;;;;;5088695;28;20328;-46
2021/04/21 11:42:43;;;;;;;42.83;28.77;;;27.60;77.00;;;;;;5106355;28;20035;-45
2021/04/21 11:45:23;;;;;;;31.40;17.85;;;27.60;76.80;;;;;;5106304;28;20095;-48
2021/04/21 11:48:03;;;;;;;25.15;11.63;;;27.70;76.60;;;;;;5106500;28;20008;-41
2021/04/21 11:50:31;;;;;;;22.88;12.35;;;27.80;76.10;;;;;;5106398;28;20065;-41
2021/04/21 11:53:07;;;;;;;25.65;13.20;;;27.90;75.90;;;;;;5106283;28;20190;-44
2021/04/21 11:55:48;;;;;;;23.00;12.43;;;28.00;75.70;;;;;;5106133;28;20028;-51
2021/04/21 11:58:18;;;;;;;20.70;11.75;;;28.00;75.50;;;;;;5106201;28;20082;-54
2021/04/21 12:00:45;;;;;;;23.42;10.82;;;28.10;75.70;;;;;;5106205;28;20020;-49
2021/04/21 12:03:15;;;;;;;18.13;10.35;;;28.10;75.70;;;;;;5106029;28;20047;-46
2021/04/21 12:05:43;;;;;;;21.52;10.48;;;28.20;75.70;;;;;;5106107;28;20034;-45
2021/04/21 12:08:10;;;;;;;23.02;10.73;;;28.20;75.60;;;;;;5105866;28;20301;-51
2021/04/21 12:10:41;;;;;;;28.00;10.75;;;28.30;75.70;;;;;;5106071;28;20016;-51
2021/04/21 12:13:41;;;;;;;22.05;9.85;;;28.30;75.80;;;;;;5105970;28;20019;-53
2021/04/21 12:16:14;;;;;;;26.77;10.77;;;28.40;75.70;;;;;;5088504;28;20031;-53
2021/04/21 12:18:50;;;;;;;19.63;10.43;;;28.50;75.70;;;;;;5105727;28;20369;-45
2021/04/21 12:21:17;;;;;;;27.65;10.32;;;28.50;75.50;;;;;;5105720;28;20128;-48
2021/04/21 12:23:46;;;;;;;20.80;9.13;;;28.60;75.40;;;;;;5105721;28;20023;-49
2021/04/21 12:26:27;;;;;;;17.60;9.40;;;28.60;75.30;;;;;;5105719;28;20024;-49
2021/04/21 12:28:58;;;;;;;26.23;9.57;;;28.70;75.30;;;;;;5105596;28;20008;-52
2021/04/21 12:31:26;;;;;;;22.83;9.60;;;28.70;75.20;;;;;;5105309;28;20020;-53
2021/04/21 12:33:55;;;;;;;19.30;9.07;;;28.80;75.10;;;;;;5105377;28;20424;-53
2021/04/21 12:36:40;;;;;;;19.17;8.57;;;28.80;74.90;;;;;;5105827;28;20243;-58
2021/04/21 12:39:11;;;;;;;24.35;9.48;;;28.90;74.70;;;;;;5105228;28;20027;-53
2021/04/21 12:41:43;;;;;;;25.67;9.10;;;28.90;74.50;;;;;;5105213;28;20020;-53
2021/04/21 12:44:23;;;;;;;23.05;8.52;;;29.00;74.50;;;;;;5105199;28;20070;-55
2021/04/21 12:46:53;;;;;;;21.08;8.70;;;29.00;74.30;;;;;;5105549;28;20032;-54
2021/04/21 12:49:35;;;;;;;22.52;8.45;;;29.00;74.00;;;;;;5104937;28;20058;-48
2021/04/21 12:52:05;;;;;;;21.98;8.70;;;29.10;74.00;;;;;;5105690;28;20028;-45
2021/04/21 12:54:39;;;;;;;18.08;8.82;;;29.10;73.90;;;;;;5104927;28;20023;-50
2021/04/21 12:57:09;;;;;;;18.48;8.35;;;29.20;73.90;;;;;;5105175;28;20073;-51
2021/04/21 12:59:42;;;;;;;23.77;8.82;;;29.20;74.00;;;;;;5105039;28;20083;-51
2021/04/21 13:02:16;;;;;;;17.75;7.90;;;29.20;73.80;;;;;;5104928;28;20110;-49
2021/04/21 13:04:45;;;;;;;16.90;8.40;;;29.30;73.70;;;;;;5104753;28;20083;-50
2021/04/21 13:07:22;;;;;;;19.15;8.45;;;29.30;73.70;;;;;;5104789;28;20050;-51
2021/04/21 13:09:49;;;;;;;16.45;8.43;;;29.40;73.90;;;;;;5104595;28;20101;-47
2021/04/21 13:12:23;;;;;;;17.10;7.72;;;29.40;73.70;;;;;;5104529;28;20022;-53
2021/04/21 13:14:51;;;;;;;18.48;8.25;;;29.40;73.80;;;;;;5104926;28;20198;-50
2021/04/21 13:17:18;;;;;;;15.18;8.23;;;29.50;73.80;;;;;;5104596;28;20185;-55